ワルシャワ の空港の天気 - METARとTAF

ワルシャワ・フレデリック・ショパン空港 ( EPWA / WAW ) - ポーランド ワルシャワ
飛行場実況気象(Metar)
観測時間03/30 14:00 CEST (03/30 12:00 UTC)
風向・風速西 3m/s
視程10km以上
天気現象
全天の8割程度の雲 雲底高度 910m
気温9℃
湿度62%
気圧1026hPa
METAREPWA 301200Z 28005KT 230V310 9999 BKN030 09/02 Q1026 NOSIG
過去の天気等 Google飛行場航空写真 Wunderground天気予報

過去48時間のMETAR

飛行場予報(TAF)
発表時間: 3/30 13:30 CEST (3/30 11:30 UTC)
予報対象時間: 30日14時 CEST ~ 31日14時 CEST
風向・風速西南西 4m/s
視程10km以上
全天の8割程度の雲 雲底高度 760m
30日19時 CEST ~ 30日22時 CEST に徐々に
風向・風速南 5m/s
30日22時 CEST ~ 31日1時 CEST に徐々に
全天の8割程度の雲 雲底高度 400m
31日1時 CEST ~ 31日10時 CEST に 確率 40% で一時的に
視程4,000m
天気現象弱い雨 もや
全天の8割程度の雲 雲底高度 210m
TAF EPWA 301130Z 3012/3112 25007KT 9999 BKN025
BECMG 3017/3020 18010KT
BECMG 3020/3023 BKN013
PROB40 TEMPO 3023/3108 4000 -RA BR BKN007